Updated26/04/2017 18:45 
 

GeoURL
free counters
Scottish Weather Network UK Weather Network Cumulus Top Weather Sites

Peebles Weather - Live Gauges

Raw Data, Raw Data Expanded

Ignore low humidity and Dew Point values. Something wrong with the sensor.
Daytime temperatures are in direct sunlight so may be higher than official air temperature values.

Warnings and solar data not updating. Currently under investigation. (27th Oct 2016)

2017/04/26 17:20 EGPH 261720Z VRB03KT CAVOK 09/M02 Q1020
8.2°C 0.0 mm 0.0 mm 0.0 mm 3.0 mph 4.5 mph 1017.3 hPa 56% X-Ray Solar Flare Level
Planetary K-Index
Planetary K-Index History
Station Warn Rain Snow Flood Wind Ltng Heat Cold Glob Moon Temp Rain 1h Rain Wed Rain 24h Wind 10m Gust Pressure Hum Proton Levels
Lost sensor contact!!!
0.235 m New moon Cold F1-W F:81 A:12 Kp:2 SSN:36
Latitude  :   Sunrise    :   Moonrise    : Moon
Longitude :   Sunset  :   Moonset  :
Elevation  :   Day length :   Moon  :

Instrument view of current data at
Outside Temperature
Wind Chill
Heat Index
small
small
small
Dew Point
Outside Humidity
Rain today
small
small
small
Inside Temperature
Inside Humidity
Cloud Base
small
small
 Barometer
 Wind
analog
wind
Wind Compass Wind Gauge Wind Rose

 

Valid XHTML 1.1 Valid CSS! Page updated
© Sandaysoft 2008
Cumulus software v by Steve Loft